Time;durP1;ratioP1;P1;durP2;ratioP2;P2;SDS_P1;SDS_P2;PMS_P1;PMS_P2;Temp;Humidity;BMP_temperature;BMP_pressure;BME280_temperature;BME280_humidity;BME280_pressure;Samples;Min_cycle;Max_cycle;Signal;HPM_P1;HPM_P2
2022/05/17 00:02:23;;;;;;;13.98;6.65;;;;;;;23.05;48.53;102063.81;5061052;28;20051;-60
2022/05/17 00:04:50;;;;;;;10.82;6.32;;;;;;;23.03;48.51;102060.41;5079457;28;20048;-60
2022/05/17 00:07:17;;;;;;;12.55;7.40;;;;;;;23.04;48.40;102067.53;5079364;28;20167;-60
2022/05/17 00:09:43;;;;;;;12.10;7.28;;;;;;;23.02;48.59;102061.41;5079242;28;20980;-60
2022/05/17 00:12:10;;;;;;;10.75;6.60;;;;;;;23.02;48.65;102058.72;5081546;28;20046;-59
2022/05/17 00:14:37;;;;;;;11.27;6.65;;;;;;;23.01;48.51;102051.59;5079329;28;20044;-60
2022/05/17 00:17:04;;;;;;;10.80;6.53;;;;;;;23.01;48.64;102053.47;5081400;28;20057;-60
2022/05/17 00:19:31;;;;;;;12.98;6.15;;;;;;;23.00;48.40;102058.03;5080699;28;20123;-60
2022/05/17 00:21:58;;;;;;;10.63;6.53;;;;;;;23.01;48.62;102056.16;5080252;28;20323;-61
2022/05/17 00:24:26;;;;;;;11.68;6.10;;;;;;;22.99;48.35;102064.41;5080481;28;20032;-59
2022/05/17 00:26:53;;;;;;;10.07;5.88;;;;;;;22.99;48.09;102058.16;5077271;28;20054;-58
2022/05/17 00:29:19;;;;;;;12.43;6.20;;;;;;;22.98;48.84;102054.63;5082503;28;20346;-60
2022/05/17 00:31:47;;;;;;;12.48;6.50;;;;;;;22.97;48.67;102057.50;5078330;28;20123;-60
2022/05/17 00:34:15;;;;;;;9.85;5.47;;;;;;;22.98;48.27;102060.03;5078560;28;20048;-60
2022/05/17 00:36:41;;;;;;;10.65;5.90;;;;;;;22.97;48.48;102062.91;5076957;28;20078;-59
2022/05/17 00:39:08;;;;;;;10.38;6.55;;;;;;;22.96;48.56;102062.06;5079630;28;20162;-58
2022/05/17 00:41:35;;;;;;;11.57;6.35;;;;;;;22.95;48.64;102057.63;5078934;28;20434;-60
2022/05/17 00:47:04;;;;;;;10.30;5.88;;;;;;;22.94;48.69;102065.91;5075219;28;20056;-59
2022/05/17 00:49:38;;;;;;;12.32;6.32;;;;;;;22.95;48.86;102064.91;5074428;28;20047;-59
2022/05/17 00:52:11;;;;;;;9.88;5.88;;;;;;;22.93;48.69;102067.75;5080030;28;20046;-59
2022/05/17 00:54:40;;;;;;;8.93;5.53;;;;;;;22.93;48.92;102069.63;5078700;28;20052;-60
2022/05/17 00:57:14;;;;;;;11.73;6.30;;;;;;;22.93;48.55;102065.06;5080135;28;20044;-60
2022/05/17 00:59:41;;;;;;;10.95;6.65;;;;;;;22.92;48.69;102057.13;5079179;28;20454;-60
2022/05/17 01:02:10;;;;;;;9.00;5.72;;;;;;;22.91;48.91;102061.66;5078992;28;20147;-59
2022/05/17 01:04:39;;;;;;;10.80;5.45;;;;;;;22.93;48.91;102067.75;5077838;28;20056;-59
2022/05/17 01:07:14;;;;;;;11.57;5.35;;;;;;;22.92;48.65;102067.94;5078344;28;20320;-59
2022/05/17 01:09:40;;;;;;;9.85;5.55;;;;;;;22.92;48.54;102073.34;5078723;28;20077;-60
2022/05/17 01:12:07;;;;;;;8.10;5.15;;;;;;;22.91;48.60;102067.06;5077240;28;20052;-59
2022/05/17 01:17:20;;;;;;;8.73;4.80;;;;;;;22.90;48.85;102065.34;5078252;28;20056;-60
2022/05/17 01:19:47;;;;;;;9.98;5.55;;;;;;;22.89;48.94;102067.19;5088790;28;20051;-59
2022/05/17 01:22:13;;;;;;;7.82;5.13;;;;;;;22.87;48.67;102077.34;5078851;28;20188;-60
2022/05/17 01:24:40;;;;;;;10.25;4.70;;;;;;;22.87;48.75;102071.91;5080339;28;20051;-60
2022/05/17 01:27:20;;;;;;;10.25;5.30;;;;;;;22.87;49.12;102073.75;5078626;28;20054;-58
2022/05/17 01:29:49;;;;;;;9.82;5.18;;;;;;;22.87;48.63;102073.75;5079413;28;20122;-61
2022/05/17 01:32:16;;;;;;;9.95;4.72;;;;;;;22.86;48.98;102078.31;5079635;28;20044;-60
2022/05/17 01:34:44;;;;;;;7.38;4.78;;;;;;;22.85;48.70;102070.38;5079544;28;20046;-60
2022/05/17 01:37:14;;;;;;;9.27;4.82;;;;;;;22.84;48.66;102072.22;5076024;28;20048;-60
2022/05/17 01:39:41;;;;;;;8.00;4.80;;;;;;;22.83;48.84;102075.91;5077374;28;20044;-60
2022/05/17 01:42:10;;;;;;;9.63;4.75;;;;;;;22.83;48.74;102073.22;5080571;28;20455;-60
2022/05/17 01:44:38;;;;;;;8.00;4.95;;;;;;;22.82;48.94;102070.66;5077285;28;20044;-59
2022/05/17 01:47:05;;;;;;;7.47;4.85;;;;;;;22.82;48.64;102067.97;5075695;28;20052;-61
2022/05/17 01:49:32;;;;;;;7.20;4.30;;;;;;;22.82;48.87;102065.25;5079101;28;20032;-60
2022/05/17 01:51:58;;;;;;;7.20;4.38;;;;;;;22.80;49.19;102067.28;5078866;28;20040;-61
2022/05/17 01:54:25;;;;;;;7.25;4.40;;;;;;;22.79;48.92;102063.72;5078417;28;20044;-60
2022/05/17 01:56:51;;;;;;;7.53;4.38;;;;;;;22.78;49.02;102067.44;5077434;28;20035;-60
2022/05/17 01:59:18;;;;;;;7.13;4.32;;;;;;;22.77;48.84;102071.16;5078035;28;20040;-59
2022/05/17 02:01:45;;;;;;;8.50;4.05;;;;;;;22.77;48.82;102076.56;5078679;28;20040;-60
2022/05/17 02:04:12;;;;;;;7.22;4.32;;;;;;;22.77;49.21;102071.16;5079163;28;20146;-60
2022/05/17 02:06:39;;;;;;;8.02;4.05;;;;;;;22.77;49.14;102068.44;5074635;28;20047;-59
2022/05/17 02:09:06;;;;;;;10.20;4.68;;;;;;;22.76;48.96;102068.59;5077456;28;20063;-59
2022/05/17 02:11:32;;;;;;;6.60;3.95;;;;;;;22.75;48.80;102062.31;5076854;28;20050;-60
2022/05/17 02:13:59;;;;;;;6.68;4.10;;;;;;;22.75;48.45;102072.28;5079380;28;20078;-59
2022/05/17 02:16:25;;;;;;;6.50;4.03;;;;;;;22.74;48.92;102067.91;5079168;28;20044;-60
2022/05/17 02:18:52;;;;;;;8.40;3.78;;;;;;;22.74;48.93;102081.41;5074980;28;20050;-60
2022/05/17 02:21:18;;;;;;;6.80;4.18;;;;;;;22.72;49.40;102078.03;5078970;28;20039;-59
2022/05/17 02:23:45;;;;;;;7.47;4.25;;;;;;;22.71;49.14;102082.56;5082413;28;20128;-60
2022/05/17 02:26:12;;;;;;;6.15;3.90;;;;;;;22.71;48.99;102084.41;5082204;28;20040;-59
2022/05/17 02:28:42;;;;;;;8.40;4.43;;;;;;;22.69;49.19;102081.88;5082434;28;20048;-59
2022/05/17 02:31:11;;;;;;;7.10;4.07;;;;;;;22.68;49.07;102085.59;5081997;28;20123;-60
2022/05/17 02:33:38;;;;;;;6.72;4.10;;;;;;;22.68;49.06;102088.28;5078206;28;20127;-59
2022/05/17 02:36:05;;;;;;;9.00;4.38;;;;;;;22.67;49.16;102092.84;5082192;28;20082;-60
2022/05/17 02:38:31;;;;;;;8.48;4.60;;;;;;;22.66;49.19;102083.03;5081514;28;20044;-58
2022/05/17 02:40:58;;;;;;;6.18;3.80;;;;;;;22.66;49.16;102093.84;5081966;28;20040;-59
2022/05/17 02:43:24;;;;;;;7.18;3.72;;;;;;;22.65;49.56;102094.84;5084743;28;20416;-58
2022/05/17 02:45:53;;;;;;;6.10;3.55;;;;;;;22.65;49.46;102092.16;5079443;28;20517;-60
2022/05/17 02:48:19;;;;;;;6.50;3.40;;;;;;;22.66;49.17;102093.00;5079577;28;20055;-60
2022/05/17 02:50:46;;;;;;;6.90;3.78;;;;;;;22.64;49.54;102101.28;5081905;28;20048;-60
2022/05/17 02:53:12;;;;;;;7.00;3.92;;;;;;;22.64;49.46;102098.56;5082874;28;20048;-60
2022/05/17 02:55:39;;;;;;;7.00;3.65;;;;;;;22.64;49.73;102095.88;5080509;28;20078;-60
2022/05/17 02:58:05;;;;;;;6.10;3.78;;;;;;;22.64;49.32;102098.56;5082476;28;20040;-59
2022/05/17 03:00:32;;;;;;;6.10;3.72;;;;;;;22.63;49.56;102096.88;5083144;28;20696;-59
2022/05/17 03:02:59;;;;;;;6.60;3.67;;;;;;;22.62;49.65;102103.25;5081378;28;20127;-60
2022/05/17 03:05:25;;;;;;;5.47;3.50;;;;;;;22.63;49.45;102096.00;5080933;28;21257;-59
2022/05/17 03:07:52;;;;;;;9.00;4.15;;;;;;;22.61;49.23;102093.47;5081480;28;20058;-59
2022/05/17 03:10:19;;;;;;;5.38;3.25;;;;;;;22.63;49.38;102096.88;5080410;28;20043;-59
2022/05/17 03:12:46;;;;;;;4.82;3.25;;;;;;;22.62;49.41;102092.44;5082772;28;20499;-61
2022/05/17 03:15:17;;;;;;;5.72;3.38;;;;;;;22.62;49.31;102095.16;5082252;28;20347;-60
2022/05/17 03:17:44;;;;;;;7.45;3.88;;;;;;;22.62;49.49;102102.41;5081992;28;20040;-59
2022/05/17 03:20:11;;;;;;;7.07;4.00;;;;;;;22.61;49.37;102098.88;5081709;28;20040;-59
2022/05/17 03:22:37;;;;;;;5.63;3.33;;;;;;;22.63;49.61;102098.69;5081771;28;20043;-59
2022/05/17 03:25:04;;;;;;;7.70;3.42;;;;;;;22.62;49.32;102094.31;5082864;28;20058;-60
2022/05/17 03:27:52;;;;;;;6.45;3.42;;;;;;;22.63;49.32;102102.28;5081519;28;20044;-59
2022/05/17 03:30:19;;;;;;;4.57;3.05;;;;;;;22.62;49.18;102097.84;5079053;28;20054;-60
2022/05/17 03:32:46;;;;;;;5.50;3.15;;;;;;;22.64;49.31;102103.97;5080635;28;20044;-60
2022/05/17 03:35:13;;;;;;;5.25;3.30;;;;;;;22.62;49.39;102102.41;5080680;28;20044;-60
2022/05/17 03:37:39;;;;;;;5.65;3.42;;;;;;;22.62;49.25;102105.97;5082533;28;20046;-59
2022/05/17 03:40:09;;;;;;;4.60;2.95;;;;;;;22.63;49.62;102104.09;5080798;28;20341;-60
2022/05/17 03:42:36;;;;;;;5.10;3.40;;;;;;;22.61;49.78;102108.81;5078521;28;20055;-60
2022/05/17 03:45:04;;;;;;;5.55;3.45;;;;;;;22.62;49.43;102110.53;5077503;28;20062;-59
2022/05/17 03:47:31;;;;;;;5.13;2.92;;;;;;;22.61;49.28;102103.41;5078679;28;20044;-59
2022/05/17 03:49:58;;;;;;;5.32;3.17;;;;;;;22.63;49.33;102112.22;5080213;28;20052;-60
2022/05/17 03:52:25;;;;;;;7.55;3.47;;;;;;;22.62;49.33;102119.47;5081291;28;20463;-58
2022/05/17 03:54:57;;;;;;;6.82;3.67;;;;;;;22.61;49.65;102114.22;5074635;28;20062;-59
2022/05/17 03:57:25;;;;;;;12.05;4.07;;;;;;;22.59;49.86;102106.28;5078150;28;20044;-59
2022/05/17 03:59:51;;;;;;;12.10;5.03;;;;;;;22.60;49.81;102116.09;5082467;28;20481;-60
2022/05/17 04:02:18;;;;;;;15.23;4.63;;;;;;;22.61;49.96;102114.22;5082443;28;20050;-60
2022/05/17 04:04:44;;;;;;;11.65;4.90;;;;;;;22.61;49.98;102116.94;5083324;28;20131;-59
2022/05/17 04:07:11;;;;;;;19.27;5.57;;;;;;;22.60;49.82;102113.38;5080682;28;20416;-59
2022/05/17 04:09:38;;;;;;;12.80;5.20;;;;;;;22.60;49.63;102113.38;5080025;28;20056;-60
2022/05/17 04:12:05;;;;;;;12.35;5.18;;;;;;;22.59;49.55;102106.28;5073379;28;20054;-60
2022/05/17 04:14:31;;;;;;;14.32;4.25;;;;;;;22.61;49.74;102119.63;5074436;28;20051;-60
2022/05/17 04:16:58;;;;;;;13.18;5.43;;;;;;;22.61;49.48;102119.63;5083399;28;20052;-59
2022/05/17 04:19:24;;;;;;;9.85;4.45;;;;;;;22.61;49.89;102122.34;5087536;28;20040;-59
2022/05/17 04:21:51;;;;;;;13.55;4.47;;;;;;;22.61;49.34;102123.19;5086842;28;20042;-61
2022/05/17 04:24:17;;;;;;;11.52;4.95;;;;;;;22.62;49.67;102121.31;5086656;28;20546;-60
2022/05/17 04:26:44;;;;;;;16.70;5.20;;;;;;;22.60;49.81;102121.50;5088836;28;20048;-59
2022/05/17 04:29:11;;;;;;;12.23;4.32;;;;;;;22.60;49.31;102132.31;5088040;28;20058;-60
2022/05/17 04:31:37;;;;;;;12.10;4.20;;;;;;;22.60;49.59;102136.88;5087774;28;20148;-59
2022/05/17 04:34:04;;;;;;;13.30;4.97;;;;;;;22.60;49.49;102132.31;5089083;28;20274;-58
2022/05/17 04:36:32;;;;;;;12.50;4.78;;;;;;;22.59;49.32;102136.00;5090641;28;20899;-59
2022/05/17 04:38:58;;;;;;;12.38;4.57;;;;;;;22.60;49.46;102136.88;5088578;28;20048;-59
2022/05/17 04:41:25;;;;;;;16.60;4.78;;;;;;;22.60;49.30;102144.97;5084598;28;20722;-59
2022/05/17 04:43:51;;;;;;;10.85;4.45;;;;;;;22.60;48.94;102151.22;5086922;28;20042;-60
2022/05/17 04:46:18;;;;;;;11.77;4.82;;;;;;;22.59;49.46;102148.66;5089591;28;20044;-59
2022/05/17 04:48:45;;;;;;;15.40;5.15;;;;;;;22.58;49.55;102153.22;5085845;28;20083;-59
2022/05/17 04:51:12;;;;;;;11.73;4.55;;;;;;;22.58;49.19;102150.50;5088480;28;20134;-59
2022/05/17 04:53:41;;;;;;;10.80;4.60;;;;;;;22.59;48.95;102154.06;5088288;28;20043;-59
2022/05/17 04:56:09;;;;;;;11.68;5.55;;;;;;;22.58;49.06;102141.56;5085280;28;20405;-60
2022/05/17 04:58:35;;;;;;;10.18;4.82;;;;;;;22.60;48.90;102155.78;5088050;28;20043;-59
2022/05/17 05:01:03;;;;;;;9.35;4.43;;;;;;;22.59;49.31;102154.94;5089034;28;20058;-60
2022/05/17 05:03:31;;;;;;;10.30;3.67;;;;;;;22.59;49.29;102165.75;5086795;28;20089;-59
2022/05/17 05:05:57;;;;;;;12.88;5.70;;;;;;;22.59;49.30;102159.47;5086059;28;20330;-59
2022/05/17 05:08:24;;;;;;;12.98;4.30;;;;;;;22.59;49.37;102159.47;5087204;28;20044;-59
2022/05/17 05:10:54;;;;;;;9.50;4.30;;;;;;;22.60;49.54;102166.59;5083691;28;20050;-59
2022/05/17 05:13:23;;;;;;;14.55;4.63;;;;;;;22.60;49.44;102170.13;5086729;28;20036;-59
2022/05/17 05:15:50;;;;;;;9.55;4.13;;;;;;;22.61;49.55;102169.13;5089489;28;20079;-60
2022/05/17 05:18:17;;;;;;;10.30;5.05;;;;;;;22.61;49.54;102168.28;5086912;28;20442;-60
2022/05/17 05:20:44;;;;;;;11.05;4.75;;;;;;;22.63;49.30;102167.13;5085833;28;20076;-59
2022/05/17 05:23:11;;;;;;;10.60;4.40;;;;;;;22.63;49.40;102160.84;5089071;28;20044;-59
2022/05/17 05:25:39;;;;;;;8.75;4.28;;;;;;;22.63;49.20;102168.97;5089490;28;20130;-59
2022/05/17 05:28:08;;;;;;;10.05;4.18;;;;;;;22.64;49.45;102165.28;5087353;28;20044;-59
2022/05/17 05:30:36;;;;;;;7.63;3.92;;;;;;;22.65;49.06;102164.28;5089178;28;20050;-59
2022/05/17 05:33:02;;;;;;;8.27;4.35;;;;;;;22.64;49.39;102174.25;5089440;28;20581;-59
2022/05/17 05:35:29;;;;;;;10.93;4.10;;;;;;;22.64;49.33;102168.84;5089860;28;20350;-60
2022/05/17 05:37:56;;;;;;;8.52;4.57;;;;;;;22.66;49.16;102174.91;5085693;28;20054;-59
2022/05/17 05:40:22;;;;;;;7.93;4.88;;;;;;;22.66;49.40;102183.03;5088932;28;20039;-58
2022/05/17 05:42:50;;;;;;;9.43;4.00;;;;;;;22.67;49.35;102187.44;5089971;28;20040;-59
2022/05/17 05:45:18;;;;;;;7.15;3.53;;;;;;;22.67;49.22;102192.84;5088369;28;20075;-58
2022/05/17 05:47:46;;;;;;;7.95;3.90;;;;;;;22.68;49.02;102185.59;5089794;28;20048;-59
2022/05/17 05:50:12;;;;;;;6.60;3.88;;;;;;;22.70;48.83;102182.72;5088072;28;20126;-59
2022/05/17 05:52:39;;;;;;;8.77;3.92;;;;;;;22.68;49.09;102182.91;5089356;28;20214;-59
2022/05/17 05:55:08;;;;;;;6.28;3.88;;;;;;;22.69;49.09;102190.00;5085171;28;20309;-60
2022/05/17 05:57:36;;;;;;;6.45;3.58;;;;;;;22.71;48.81;102182.56;5091421;28;20050;-59
2022/05/17 06:00:03;;;;;;;5.43;3.28;;;;;;;22.70;49.24;102190.84;5093092;28;20127;-59
2022/05/17 06:02:30;;;;;;;7.32;3.92;;;;;;;22.72;49.18;102186.16;5094828;28;20038;-59
2022/05/17 06:04:57;;;;;;;10.93;3.30;;;;;;;22.72;48.71;102183.44;5090940;28;20135;-59
2022/05/17 06:07:23;;;;;;;7.47;3.03;;;;;;;22.71;49.05;102184.41;5093775;28;20051;-60
2022/05/17 06:09:50;;;;;;;8.15;3.30;;;;;;;22.72;48.81;102183.44;5091448;28;20050;-59
2022/05/17 06:12:16;;;;;;;6.90;3.70;;;;;;;22.72;48.68;102178.88;5071541;28;20035;-59
2022/05/17 06:14:43;;;;;;;6.60;3.22;;;;;;;22.71;48.75;102185.28;5093870;28;20127;-59
2022/05/17 06:17:09;;;;;;;8.32;2.97;;;;;;;22.72;48.56;102194.25;5094381;28;20131;-58
2022/05/17 06:19:36;;;;;;;6.50;3.33;;;;;;;22.72;48.80;102200.50;5093474;28;20131;-59
2022/05/17 06:22:03;;;;;;;5.80;2.90;;;;;;;22.73;48.82;102195.94;5088027;28;20051;-59
2022/05/17 06:24:30;;;;;;;6.75;3.13;;;;;;;22.74;48.99;102192.22;5092216;28;20624;-59
2022/05/17 06:26:56;;;;;;;5.35;2.58;;;;;;;22.74;48.80;102195.78;5092355;28;20044;-59
2022/05/17 06:29:23;;;;;;;5.47;2.83;;;;;;;22.75;48.96;102188.53;5093393;28;20304;-60
2022/05/17 06:31:49;;;;;;;6.13;2.65;;;;;;;22.75;48.87;102180.41;5089033;28;20155;-59
2022/05/17 06:34:16;;;;;;;4.45;2.45;;;;;;;22.76;48.93;102176.72;5089242;28;20116;-59
2022/05/17 06:36:42;;;;;;;4.20;2.42;;;;;;;22.78;48.54;102188.22;5090030;28;20122;-60
2022/05/17 06:39:19;;;;;;;5.80;2.67;;;;;;;22.80;48.58;102191.63;5088461;28;20101;-59
2022/05/17 06:41:45;;;;;;;7.85;2.80;;;;;;;22.81;48.88;102193.34;5091566;28;20050;-60
2022/05/17 06:44:12;;;;;;;23.33;5.05;;;;;;;22.82;48.83;102189.63;5092811;28;20048;-59
2022/05/17 06:46:38;;;;;;;12.18;3.60;;;;;;;22.82;48.41;102181.50;5090859;28;20136;-59
2022/05/17 06:49:05;;;;;;;21.10;4.75;;;;;;;22.82;48.34;102174.25;5092356;28;20055;-60
2022/05/17 06:51:35;;;;;;;14.57;4.53;;;;;;;22.83;48.58;102188.59;5092126;28;20079;-59
2022/05/17 06:54:01;;;;;;;24.05;4.90;;;;;;;22.84;48.67;102191.19;5089729;28;20126;-59
2022/05/17 06:56:28;;;;;;;22.52;4.93;;;;;;;22.84;48.84;102195.75;5090054;28;20047;-60
2022/05/17 06:58:56;;;;;;;19.02;4.82;;;;;;;22.83;48.42;102191.31;5091713;28;20159;-60
2022/05/17 07:01:22;;;;;;;25.25;6.05;;;;;;;22.83;48.45;102196.72;5090335;28;20123;-59
2022/05/17 07:03:50;;;;;;;14.48;5.18;;;;;;;22.84;48.13;102210.09;5093332;28;20090;-60
2022/05/17 07:06:17;;;;;;;21.63;6.15;;;;;;;22.83;48.96;102204.81;5092764;28;21414;-60
2022/05/17 07:08:43;;;;;;;25.25;7.60;;;;;;;22.83;48.40;102207.53;5090738;28;20487;-60
2022/05/17 07:13:55;;;;;;;22.52;5.30;;;;;;;22.82;48.81;102201.28;5092604;28;20035;-59
2022/05/17 07:16:23;;;;;;;25.15;5.85;;;;;;;22.83;48.30;102200.28;5089651;28;20502;-60
2022/05/17 07:18:50;;;;;;;27.00;5.25;;;;;;;22.83;48.57;102204.81;5092898;28;20040;-59
2022/05/17 07:21:16;;;;;;;18.73;4.80;;;;;;;22.82;48.53;102195.03;5087335;28;20053;-59
2022/05/17 07:23:43;;;;;;;22.48;6.18;;;;;;;22.82;48.53;102197.72;5090337;28;20416;-59
2022/05/17 07:26:11;;;;;;;16.27;4.80;;;;;;;22.82;48.69;102198.56;5085704;28;20075;-60
2022/05/17 07:28:46;;;;;;;30.08;5.55;;;;;;;22.83;48.71;102205.69;5092593;28;20047;-60
2022/05/17 07:31:13;;;;;;;20.40;6.07;;;;;;;22.85;48.86;102208.25;5086559;28;20191;-60
2022/05/17 07:33:40;;;;;;;25.58;5.90;;;;;;;22.87;48.89;102208.94;5088262;28;20436;-60
2022/05/17 07:36:08;;;;;;;22.73;5.50;;;;;;;22.87;48.64;102209.81;5089620;28;20044;-60
2022/05/17 07:38:35;;;;;;;19.58;5.43;;;;;;;22.88;48.89;102207.94;5088045;28;20040;-60
2022/05/17 07:41:03;;;;;;;14.15;5.10;;;;;;;22.87;48.43;102217.03;5087955;28;20054;-60
2022/05/17 07:43:30;;;;;;;17.63;5.43;;;;;;;22.87;48.51;102214.34;5088058;28;20532;-60
2022/05/17 07:45:57;;;;;;;15.30;5.18;;;;;;;22.87;48.47;102206.22;5091681;28;20127;-60
2022/05/17 07:48:25;;;;;;;16.23;5.18;;;;;;;22.87;48.37;102217.91;5090598;28;20047;-60
2022/05/17 07:50:52;;;;;;;14.60;4.35;;;;;;;22.87;48.17;102209.81;5090677;28;20396;-60
2022/05/17 07:53:21;;;;;;;15.88;4.30;;;;;;;22.86;48.74;102205.38;5087222;28;20155;-60
2022/05/17 07:55:50;;;;;;;14.18;4.85;;;;;;;22.88;48.88;102213.34;5090418;28;20428;-59
2022/05/17 07:58:17;;;;;;;13.85;5.05;;;;;;;22.88;48.67;102219.63;5090944;28;20146;-58
2022/05/17 08:00:44;;;;;;;15.27;4.13;;;;;;;22.89;48.49;102215.03;5083161;28;20135;-60
2022/05/17 08:03:15;;;;;;;15.32;4.20;;;;;;;22.90;48.91;102217.63;5091354;28;20040;-59
2022/05/17 08:05:43;;;;;;;14.60;5.10;;;;;;;22.92;48.51;102213.94;5089989;28;20058;-58
2022/05/17 08:08:11;;;;;;;18.63;4.85;;;;;;;22.93;48.75;102213.78;5091998;28;20127;-59
2022/05/17 08:10:38;;;;;;;13.32;4.60;;;;;;;22.95;48.77;102219.00;5090941;28;20090;-58
2022/05/17 08:13:05;;;;;;;17.55;4.15;;;;;;;22.96;48.62;102218.03;5090617;28;20048;-58
2022/05/17 08:15:33;;;;;;;12.48;4.10;;;;;;;22.98;48.64;102224.13;5089779;28;20265;-59
2022/05/17 08:18:04;;;;;;;10.95;3.55;;;;;;;22.98;48.29;102233.09;5087255;28;20280;-59
2022/05/17 08:20:32;;;;;;;14.55;4.20;;;;;;;23.02;48.97;102234.47;5089237;28;20699;-58
2022/05/17 08:22:59;;;;;;;12.02;3.83;;;;;;;23.02;48.67;102239.88;5085704;28;20376;-59
2022/05/17 08:28:11;;;;;;;10.45;3.78;;;;;;;23.05;48.27;102241.44;5090861;28;20040;-60
2022/05/17 08:30:38;;;;;;;13.80;3.50;;;;;;;23.05;48.34;102241.44;5088224;28;20062;-59
2022/05/17 08:33:16;;;;;;;8.80;3.20;;;;;;;23.06;47.99;102240.44;5088655;28;20131;-60
2022/05/17 08:36:00;;;;;;;10.13;3.28;;;;;;;23.07;48.42;102236.72;5089838;28;20101;-60
2022/05/17 08:38:37;;;;;;;9.32;3.47;;;;;;;23.07;47.99;102240.28;5091299;28;20040;-59
2022/05/17 08:41:41;;;;;;;9.65;3.58;;;;;;;23.08;48.33;102236.59;5087282;28;20454;-59
2022/05/17 08:44:14;;;;;;;9.10;3.20;;;;;;;23.10;48.25;102239.13;5088632;28;20050;-59
2022/05/17 08:47:07;;;;;;;8.65;3.83;;;;;;;23.09;48.36;102234.72;5087730;28;20047;-59
2022/05/17 08:50:02;;;;;;;8.80;3.22;;;;;;;23.11;48.03;102233.56;5091811;28;20048;-60
2022/05/17 08:52:31;;;;;;;8.00;3.53;;;;;;;23.11;48.30;102238.13;5083070;28;20569;-60
2022/05/17 08:55:10;;;;;;;10.45;3.08;;;;;;;23.11;47.87;102233.56;5088607;28;20147;-59
2022/05/17 08:57:43;;;;;;;11.07;3.78;;;;;;;23.14;47.94;102237.81;5085670;28;20183;-59
2022/05/17 09:00:18;;;;;;;9.35;3.58;;;;;;;23.13;48.38;102233.41;5088184;28;20044;-59
2022/05/17 09:02:50;;;;;;;9.70;2.92;;;;;;;23.15;48.35;102239.50;5064764;28;20134;-59
2022/05/17 09:05:34;;;;;;;8.07;2.83;;;;;;;23.15;48.29;102234.94;5089666;28;20140;-59
2022/05/17 09:08:19;;;;;;;6.80;2.70;;;;;;;23.17;47.73;102236.66;5090087;28;20047;-59
2022/05/17 09:10:53;;;;;;;6.97;2.72;;;;;;;23.18;48.10;102225.69;5088206;28;20050;-59
2022/05/17 09:13:26;;;;;;;6.95;2.58;;;;;;;23.20;48.47;102228.25;5079485;28;20086;-59
2022/05/17 09:15:56;;;;;;;5.63;2.53;;;;;;;23.20;48.12;102222.84;5083620;28;20334;-59
2022/05/17 09:18:24;;;;;;;9.73;2.55;;;;;;;23.21;48.02;102219.97;5087713;28;20047;-60
2022/05/17 09:20:52;;;;;;;10.48;3.67;;;;;;;23.22;48.32;102215.41;5080647;28;20063;-60
2022/05/17 09:23:18;;;;;;;4.25;2.17;;;;;;;23.23;47.88;102211.69;5078828;28;20058;-59
2022/05/17 09:26:07;;;;;;;6.90;2.60;;;;;;;23.23;48.46;102220.66;5080574;28;20044;-58
2022/05/17 09:29:04;;;;;;;6.45;2.53;;;;;;;23.26;48.04;102227.63;5081204;28;20063;-59
2022/05/17 09:31:34;;;;;;;7.25;2.42;;;;;;;23.26;48.08;102214.09;5083716;28;20043;-60
2022/05/17 09:34:06;;;;;;;7.65;2.33;;;;;;;23.28;48.53;102226.47;5081805;28;20438;-60
2022/05/17 09:36:53;;;;;;;3.97;1.83;;;;;;;23.27;47.79;102224.75;5079964;28;20058;-59
2022/05/17 09:39:21;;;;;;;4.75;1.85;;;;;;;23.29;48.47;102220.03;5082629;28;20730;-60
2022/05/17 09:41:48;;;;;;;5.82;2.60;;;;;;;23.32;48.52;102233.28;5083652;28;20044;-59
2022/05/17 09:44:41;;;;;;;7.85;2.25;;;;;;;23.32;48.07;102227.84;5081592;28;20040;-59
2022/05/17 09:47:26;;;;;;;4.25;1.98;;;;;;;23.33;48.13;102231.41;5080912;28;20054;-60
2022/05/17 09:52:45;;;;;;;5.18;2.28;;;;;;;23.35;48.13;102222.13;5079735;28;20045;-59
2022/05/17 09:55:20;;;;;;;3.92;1.67;;;;;;;23.37;48.16;102211.16;5080309;28;21024;-60
2022/05/17 09:57:57;;;;;;;6.30;2.42;;;;;;;23.37;48.41;102220.13;5079470;28;20066;-60
2022/05/17 10:00:42;;;;;;;5.45;1.55;;;;;;;23.38;48.45;102216.41;5082682;28;20067;-60
2022/05/17 10:03:15;;;;;;;7.72;2.40;;;;;;;23.39;48.24;102201.84;5079104;28;20522;-60
2022/05/17 10:06:16;;;;;;;6.10;1.97;;;;;;;23.40;48.56;102216.25;5076332;28;20040;-61
2022/05/17 10:09:04;;;;;;;4.32;1.50;;;;;;;23.41;48.46;102204.44;5076012;28;20051;-61
2022/05/17 10:12:00;;;;;;;6.28;1.90;;;;;;;23.43;47.89;102204.25;5077061;28;20048;-60
2022/05/17 10:14:56;;;;;;;3.90;1.65;;;;;;;23.44;48.35;102203.25;5079121;28;20046;-59
2022/05/17 10:17:37;;;;;;;3.65;1.90;;;;;;;23.45;48.13;102196.84;5080373;28;20050;-60
2022/05/17 10:20:10;;;;;;;5.35;1.83;;;;;;;23.45;47.98;102191.44;5082190;28;20131;-61
2022/05/17 10:22:45;;;;;;;8.40;2.00;;;;;;;23.45;48.57;102189.56;5084023;28;20140;-61
2022/05/17 10:25:23;;;;;;;4.13;1.83;;;;;;;23.46;47.89;102187.72;5085798;28;20490;-60
2022/05/17 10:27:55;;;;;;;4.20;1.67;;;;;;;23.46;48.02;102188.56;5084915;28;20040;-61
2022/05/17 10:30:44;;;;;;;6.95;1.98;;;;;;;23.45;48.53;102189.56;5086352;28;20066;-61
2022/05/17 10:33:18;;;;;;;4.38;1.73;;;;;;;23.47;48.27;102187.53;5076086;28;20046;-61
2022/05/17 10:35:50;;;;;;;5.22;1.90;;;;;;;23.48;48.21;102183.84;5086295;28;20044;-60
2022/05/17 10:38:28;;;;;;;3.10;1.33;;;;;;;23.48;48.30;102193.81;5084468;28;20040;-61
2022/05/17 10:40:56;;;;;;;3.00;1.50;;;;;;;23.51;48.28;102186.22;5083075;28;20048;-60
2022/05/17 10:43:30;;;;;;;3.80;1.83;;;;;;;23.53;47.99;102181.53;5089221;28;20036;-60
2022/05/17 10:46:04;;;;;;;4.57;1.80;;;;;;;23.56;48.05;102175.81;5088759;28;20076;-59
2022/05/17 10:48:42;;;;;;;3.83;1.45;;;;;;;23.59;48.05;102170.03;5084078;28;20300;-61
2022/05/17 10:51:43;;;;;;;3.08;1.40;;;;;;;23.62;47.49;102179.72;5082469;28;20201;-60
2022/05/17 10:54:28;;;;;;;3.70;1.30;;;;;;;23.65;47.72;102171.28;5090855;28;21075;-61
2022/05/17 10:57:13;;;;;;;3.33;1.42;;;;;;;23.68;47.88;102167.44;5087724;28;20036;-59
2022/05/17 10:59:56;;;;;;;2.88;1.23;;;;;;;23.70;47.67;102166.28;5085975;28;20050;-61
2022/05/17 11:02:42;;;;;;;2.78;1.20;;;;;;;23.73;48.04;102159.69;5085034;28;20063;-62
2022/05/17 11:05:44;;;;;;;3.42;1.17;;;;;;;23.75;47.54;102163.09;5090197;28;20036;-60
2022/05/17 11:08:16;;;;;;;4.20;1.83;;;;;;;23.78;47.66;102152.78;5086582;28;20058;-60
2022/05/17 11:11:21;;;;;;;3.20;1.45;;;;;;;23.79;47.39;102153.63;5092086;28;20104;-61
2022/05/17 11:14:00;;;;;;;3.28;1.30;;;;;;;23.83;47.28;102145.03;5087276;28;20036;-61
2022/05/17 11:16:52;;;;;;;4.97;1.77;;;;;;;23.84;47.81;102132.31;5090495;28;20182;-60
2022/05/17 11:19:42;;;;;;;3.72;1.50;;;;;;;23.87;47.20;102135.56;5080272;28;20056;-60
2022/05/17 11:22:32;;;;;;;4.43;1.55;;;;;;;23.89;47.13;102128.16;5087715;28;20269;-61
2022/05/17 11:25:14;;;;;;;2.97;1.30;;;;;;;23.91;47.48;102122.56;5083584;28;20044;-61
2022/05/17 11:28:33;;;;;;;2.55;1.25;;;;;;;23.93;47.86;102138.66;5086178;28;20786;-60
2022/05/17 11:31:28;;;;;;;3.30;1.35;;;;;;;23.95;47.23;102132.06;4989311;28;20133;-60
2022/05/17 11:34:23;;;;;;;3.50;1.25;;;;;;;23.96;47.41;102120.22;5064079;28;20044;-62
2022/05/17 11:36:53;;;;;;;2.88;1.20;;;;;;;23.98;47.29;102118.19;5085934;28;20139;-60
2022/05/17 11:39:29;;;;;;;4.18;1.17;;;;;;;24.00;47.75;102123.44;5087463;28;20621;-61
2022/05/17 11:42:06;;;;;;;3.45;1.27;;;;;;;24.02;47.81;102116.03;5086971;28;20044;-61
2022/05/17 11:44:45;;;;;;;2.20;1.25;;;;;;;24.02;47.02;102113.31;5084479;28;20132;-63
2022/05/17 11:47:45;;;;;;;3.47;1.20;;;;;;;24.03;47.05;102109.59;5087320;28;20142;-60
2022/05/17 11:50:14;;;;;;;2.05;0.90;;;;;;;24.04;47.71;102104.03;5088466;28;20055;-61
2022/05/17 11:52:45;;;;;;;2.70;1.20;;;;;;;24.07;46.99;102100.13;5088636;28;20097;-61
2022/05/17 11:55:16;;;;;;;1.42;0.85;;;;;;;24.06;47.44;102103.84;5089005;28;20044;-60